createdAt,value
2019-01-26T00:01:58.005Z,2.20
2019-01-26T00:04:38.385Z,2.30
2019-01-26T00:07:18.866Z,2.20
2019-01-26T00:09:59.475Z,2.10
2019-01-26T00:12:40.429Z,2.30
2019-01-26T00:15:21.389Z,2.50
2019-01-26T00:18:02.162Z,2.50
2019-01-26T00:20:43.328Z,2.50
2019-01-26T00:23:24.513Z,2.60
2019-01-26T00:26:05.585Z,2.60
2019-01-26T00:28:46.849Z,2.60
2019-01-26T00:31:27.445Z,2.50
2019-01-26T00:34:08.056Z,2.50
2019-01-26T00:36:48.636Z,2.40
2019-01-26T00:39:29.514Z,2.50
2019-01-26T00:41:57.941Z,2.70
2019-01-26T00:44:45.719Z,2.80
2019-01-26T00:47:33.481Z,2.80
2019-01-26T00:50:21.269Z,2.80
2019-01-26T00:53:09.007Z,2.80
2019-01-26T00:55:56.808Z,2.80
2019-01-26T00:58:44.568Z,2.80
2019-01-26T01:01:32.377Z,2.70
2019-01-26T01:04:20.401Z,2.70
2019-01-26T01:07:08.248Z,2.80
2019-01-26T01:09:56.001Z,2.90
2019-01-26T01:12:43.789Z,3.00
2019-01-26T01:15:31.725Z,2.90
2019-01-26T01:18:19.502Z,2.90
2019-01-26T01:21:07.341Z,3.10
2019-01-26T01:23:55.176Z,3.00
2019-01-26T01:26:42.951Z,3.00
2019-01-26T01:29:30.696Z,3.10
2019-01-26T01:31:59.307Z,3.00
2019-01-26T01:34:40.115Z,3.10
2019-01-26T01:37:20.886Z,3.20
2019-01-26T01:40:01.656Z,3.20
2019-01-26T01:42:45.458Z,3.20
2019-01-26T01:45:25.833Z,3.20
2019-01-26T01:48:06.520Z,3.20
2019-01-26T01:50:47.094Z,3.30
2019-01-26T01:53:28.240Z,3.20
2019-01-26T01:56:08.588Z,3.30
2019-01-26T01:58:49.266Z,3.30
2019-01-26T02:01:29.896Z,3.50
2019-01-26T02:04:10.707Z,3.50
2019-01-26T02:06:51.264Z,3.60
2019-01-26T02:09:31.997Z,3.60
2019-01-26T02:12:12.836Z,3.60
2019-01-26T02:14:53.684Z,3.70
2019-01-26T02:17:34.784Z,3.70
2019-01-26T02:20:15.248Z,3.70
2019-01-26T02:22:56.440Z,3.90
2019-01-26T02:25:37.041Z,3.90
2019-01-26T02:28:17.897Z,4.00
2019-01-26T02:30:58.751Z,3.80
2019-01-26T02:33:40.641Z,4.30
2019-01-26T02:36:21.087Z,4.00
2019-01-26T02:39:02.054Z,4.00
2019-01-26T02:41:42.772Z,3.90
2019-01-26T02:44:23.464Z,3.90
2019-01-26T02:47:04.226Z,4.00
2019-01-26T02:49:45.019Z,3.90
2019-01-26T02:52:25.948Z,3.70
2019-01-26T02:55:06.708Z,3.80
2019-01-26T02:57:47.785Z,4.00
2019-01-26T03:00:28.477Z,4.00
2019-01-26T03:03:09.132Z,4.00
2019-01-26T03:05:50.297Z,4.00
2019-01-26T03:08:30.952Z,4.00
2019-01-26T03:11:11.956Z,4.00
2019-01-26T03:13:53.116Z,4.00
2019-01-26T03:16:33.547Z,4.00
2019-01-26T03:19:14.202Z,4.00
2019-01-26T03:21:54.744Z,4.10
2019-01-26T03:24:35.391Z,4.10
2019-01-26T03:27:16.035Z,3.90
2019-01-26T03:29:56.804Z,4.10
2019-01-26T03:32:37.976Z,4.00
2019-01-26T03:35:18.410Z,4.10
2019-01-26T03:37:59.563Z,4.10
2019-01-26T03:40:40.745Z,4.20
2019-01-26T03:43:21.406Z,4.10
2019-01-26T03:46:02.391Z,4.30
2019-01-26T03:48:42.847Z,4.30
2019-01-26T03:51:23.289Z,4.10
2019-01-26T03:54:04.085Z,4.20
2019-01-26T03:56:44.698Z,4.20
2019-01-26T03:59:25.214Z,4.20
2019-01-26T04:02:06.249Z,4.30
2019-01-26T04:04:47.104Z,4.30
2019-01-26T04:07:27.883Z,4.30
2019-01-26T04:10:08.792Z,4.30
2019-01-26T04:12:49.156Z,4.40
2019-01-26T04:15:30.024Z,4.50
2019-01-26T04:18:10.536Z,4.50
2019-01-26T04:20:51.019Z,4.50
2019-01-26T04:23:31.892Z,4.50
2019-01-26T04:26:12.326Z,4.50
2019-01-26T04:28:53.048Z,4.70
2019-01-26T04:31:33.940Z,4.60
2019-01-26T04:34:15.188Z,4.60
2019-01-26T04:36:55.852Z,4.60
2019-01-26T04:39:36.437Z,4.60
2019-01-26T04:42:16.940Z,4.60
2019-01-26T04:44:57.279Z,4.60
2019-01-26T04:47:38.219Z,4.70
2019-01-26T04:50:18.568Z,4.60
2019-01-26T04:52:59.356Z,4.60
2019-01-26T04:55:40.292Z,4.60
2019-01-26T04:58:21.441Z,4.60
2019-01-26T05:01:02.455Z,4.50
2019-01-26T05:03:42.880Z,4.50
2019-01-26T05:06:23.862Z,4.60
2019-01-26T05:09:04.973Z,4.60
2019-01-26T05:14:28.028Z,4.60
2019-01-26T05:17:08.685Z,4.60
2019-01-26T05:19:49.916Z,4.70
2019-01-26T05:22:31.059Z,4.70
2019-01-26T05:25:12.157Z,4.60
2019-01-26T05:27:53.196Z,4.60
2019-01-26T05:30:34.181Z,4.70
2019-01-26T05:33:14.848Z,4.70
2019-01-26T05:35:55.186Z,4.70
2019-01-26T05:38:36.200Z,4.80
2019-01-26T05:41:16.900Z,4.80
2019-01-26T05:43:57.837Z,4.70
2019-01-26T05:46:38.202Z,4.70
2019-01-26T05:49:19.003Z,4.70
2019-01-26T05:51:59.913Z,4.70
2019-01-26T05:54:40.570Z,4.70
2019-01-26T05:57:21.095Z,4.80
2019-01-26T06:00:02.028Z,4.80
2019-01-26T06:02:42.829Z,4.80
2019-01-26T06:05:23.448Z,4.80
2019-01-26T06:08:04.357Z,4.80
2019-01-26T06:10:45.758Z,4.80
2019-01-26T06:16:09.158Z,4.80
2019-01-26T06:18:49.773Z,4.80
2019-01-26T06:21:30.624Z,4.80
2019-01-26T06:23:59.053Z,4.80
2019-01-26T06:26:46.804Z,4.80
2019-01-26T06:29:34.596Z,4.80
2019-01-26T06:32:22.343Z,4.80
2019-01-26T06:35:10.385Z,4.80
2019-01-26T06:37:58.428Z,4.80
2019-01-26T06:40:46.224Z,4.80
2019-01-26T06:43:33.992Z,4.80
2019-01-26T06:46:24.732Z,4.70
2019-01-26T06:49:12.501Z,4.90
2019-01-26T06:52:00.288Z,4.70
2019-01-26T06:54:48.064Z,4.80
2019-01-26T06:57:35.850Z,4.80
2019-01-26T07:00:44.572Z,4.90
2019-01-26T07:03:32.352Z,4.90
2019-01-26T07:09:28.950Z,4.80
2019-01-26T07:12:16.977Z,4.90
2019-01-26T07:15:25.470Z,4.90
2019-01-26T07:18:09.659Z,4.90
2019-01-26T07:20:49.172Z,5.00
2019-01-26T07:23:30.226Z,5.00
2019-01-26T07:25:58.940Z,5.00
2019-01-26T07:28:46.749Z,5.10
2019-01-26T07:31:34.684Z,5.10
2019-01-26T07:34:22.427Z,5.10
2019-01-26T07:37:10.264Z,5.00
2019-01-26T07:39:58.072Z,5.00
2019-01-26T07:42:46.197Z,5.00
2019-01-26T07:45:34.216Z,5.00
2019-01-26T07:48:22.039Z,5.10
2019-01-26T07:51:09.840Z,5.10
2019-01-26T07:53:57.614Z,5.10
2019-01-26T07:56:45.352Z,5.10
2019-01-26T07:59:33.120Z,5.10
2019-01-26T08:02:23.065Z,5.10
2019-01-26T08:05:11.578Z,5.20
2019-01-26T08:07:59.412Z,5.20
2019-01-26T08:10:47.485Z,5.10
2019-01-26T08:13:35.552Z,5.20
2019-01-26T08:16:23.581Z,5.10
2019-01-26T08:19:04.204Z,5.10
2019-01-26T08:21:44.990Z,5.10
2019-01-26T08:24:25.672Z,5.20
2019-01-26T08:27:06.249Z,5.10
2019-01-26T08:29:46.880Z,5.10
2019-01-26T08:32:27.904Z,5.10
2019-01-26T08:35:08.914Z,5.10
2019-01-26T08:37:49.426Z,5.10
2019-01-26T08:40:30.486Z,5.20
2019-01-26T08:43:11.042Z,5.10
2019-01-26T08:45:51.682Z,5.20
2019-01-26T08:48:32.591Z,5.20
2019-01-26T08:51:13.664Z,5.10
2019-01-26T08:53:54.388Z,5.10
2019-01-26T08:56:35.185Z,5.10
2019-01-26T08:59:15.782Z,5.00
2019-01-26T09:01:59.153Z,5.10
2019-01-26T09:04:39.990Z,5.10
2019-01-26T09:07:21.096Z,5.20
2019-01-26T09:10:01.999Z,5.20
2019-01-26T09:12:45.220Z,5.30
2019-01-26T09:15:26.082Z,5.20
2019-01-26T09:18:06.894Z,5.20
2019-01-26T09:20:47.936Z,5.20
2019-01-26T09:23:29.042Z,5.20
2019-01-26T09:26:09.731Z,5.20
2019-01-26T09:28:50.535Z,5.30
2019-01-26T09:31:31.700Z,5.30
2019-01-26T09:34:12.200Z,5.30
2019-01-26T09:36:52.755Z,5.20
2019-01-26T09:39:33.737Z,5.20
2019-01-26T09:42:14.736Z,5.20
2019-01-26T09:44:55.704Z,5.30
2019-01-26T09:47:36.574Z,5.30
2019-01-26T09:50:17.207Z,5.30
2019-01-26T09:52:58.162Z,5.40
2019-01-26T09:55:38.859Z,5.40
2019-01-26T09:58:20.039Z,5.50
2019-01-26T10:01:00.386Z,5.50
2019-01-26T10:03:40.727Z,5.40
2019-01-26T10:06:21.700Z,5.50
2019-01-26T10:09:03.179Z,5.40
2019-01-26T10:11:44.183Z,5.40
2019-01-26T10:14:25.258Z,5.40
2019-01-26T10:17:06.037Z,5.40
2019-01-26T10:19:46.946Z,5.40
2019-01-26T10:22:28.208Z,5.40
2019-01-26T10:25:08.674Z,5.40
2019-01-26T10:27:37.100Z,5.50
2019-01-26T10:30:57.495Z,5.40
2019-01-26T10:33:35.106Z,5.40
2019-01-26T10:39:31.419Z,5.50
2019-01-26T10:48:26.383Z,5.40
2019-01-26T10:51:14.193Z,5.50
2019-01-26T10:54:02.192Z,5.50
2019-01-26T10:56:51.686Z,5.50
2019-01-26T11:00:00.306Z,5.50
2019-01-26T11:02:48.140Z,5.60
2019-01-26T11:05:39.294Z,5.60
2019-01-26T11:08:27.116Z,5.60
2019-01-26T11:11:48.877Z,5.50
2019-01-26T11:14:24.571Z,5.60
2019-01-26T11:17:12.475Z,5.60
2019-01-26T11:20:00.545Z,5.70
2019-01-26T11:25:36.021Z,5.70
2019-01-26T11:28:16.890Z,5.80
2019-01-26T11:30:57.652Z,5.80
2019-01-26T11:33:42.813Z,5.80
2019-01-26T11:36:23.600Z,5.80
2019-01-26T11:39:05.304Z,5.90
2019-01-26T11:41:46.091Z,5.90
2019-01-26T11:44:26.813Z,5.90
2019-01-26T11:47:07.753Z,5.90
2019-01-26T11:49:50.334Z,6.00
2019-01-26T11:52:31.320Z,6.00
2019-01-26T11:55:13.714Z,6.00
2019-01-26T11:57:54.878Z,6.00
2019-01-26T12:00:59.386Z,5.90
2019-01-26T12:03:56.708Z,5.90
2019-01-26T12:06:44.345Z,5.90
2019-01-26T12:09:32.087Z,5.90
2019-01-26T12:12:19.855Z,5.90
2019-01-26T12:15:28.327Z,5.80
2019-01-26T12:18:16.120Z,5.80
2019-01-26T12:20:56.924Z,5.90
2019-01-26T12:23:37.854Z,6.00
2019-01-26T12:26:18.588Z,6.00
2019-01-26T12:28:59.336Z,6.10
2019-01-26T12:31:40.245Z,6.10
2019-01-26T12:34:21.070Z,6.10
2019-01-26T12:37:02.007Z,6.10
2019-01-26T12:39:43.118Z,6.10
2019-01-26T12:45:36.364Z,6.10
2019-01-26T12:48:17.248Z,6.20
2019-01-26T12:50:58.571Z,6.30
2019-01-26T12:53:39.265Z,6.20
2019-01-26T12:56:20.196Z,6.30
2019-01-26T12:59:01.182Z,6.20
2019-01-26T13:01:42.032Z,6.30
2019-01-26T13:04:22.830Z,6.30
2019-01-26T13:07:03.749Z,6.30
2019-01-26T13:09:45.604Z,6.20
2019-01-26T13:12:26.573Z,6.20
2019-01-26T13:15:07.617Z,6.20
2019-01-26T13:17:48.290Z,6.20
2019-01-26T13:20:29.006Z,6.20
2019-01-26T13:23:09.823Z,6.10
2019-01-26T13:25:50.620Z,6.10
2019-01-26T13:28:31.696Z,6.20
2019-01-26T13:31:13.976Z,6.20
2019-01-26T13:33:54.382Z,6.20
2019-01-26T13:36:35.226Z,6.20
2019-01-26T13:39:15.832Z,6.20
2019-01-26T13:41:58.072Z,6.20
2019-01-26T13:44:41.867Z,6.20
2019-01-26T13:47:22.592Z,6.20
2019-01-26T13:50:03.348Z,6.20
2019-01-26T13:52:44.586Z,6.10
2019-01-26T13:55:25.151Z,6.20
2019-01-26T13:58:05.821Z,6.20
2019-01-26T14:00:46.798Z,6.20
2019-01-26T14:03:27.658Z,6.30
2019-01-26T14:05:56.081Z,6.20
2019-01-26T14:08:43.882Z,6.20
2019-01-26T14:14:25.224Z,6.20
2019-01-26T14:17:13.009Z,6.10
2019-01-26T14:20:00.752Z,6.10
2019-01-26T14:22:41.256Z,6.10
2019-01-26T14:25:22.087Z,6.10
2019-01-26T14:31:01.387Z,6.10
2019-01-26T14:33:42.097Z,6.10
2019-01-26T14:36:22.993Z,6.00
2019-01-26T14:39:04.519Z,6.10
2019-01-26T14:41:45.908Z,6.10
2019-01-26T14:44:26.498Z,6.10
2019-01-26T14:47:09.134Z,6.10
2019-01-26T14:49:50.009Z,6.20
2019-01-26T14:52:31.551Z,6.10
2019-01-26T14:55:11.845Z,6.10
2019-01-26T14:57:52.308Z,6.10
2019-01-26T15:00:33.281Z,6.10
2019-01-26T15:03:14.323Z,6.10
2019-01-26T15:05:55.074Z,6.10
2019-01-26T15:08:35.897Z,6.20
2019-01-26T15:11:16.727Z,6.10
2019-01-26T15:13:57.873Z,6.10
2019-01-26T15:16:38.574Z,6.10
2019-01-26T15:19:19.160Z,6.10
2019-01-26T15:21:59.875Z,6.10
2019-01-26T15:24:40.573Z,6.10
2019-01-26T15:27:21.608Z,6.10
2019-01-26T15:30:02.398Z,6.10
2019-01-26T15:32:43.382Z,6.10
2019-01-26T15:35:24.361Z,6.10
2019-01-26T15:38:05.176Z,6.10
2019-01-26T15:40:45.678Z,6.10
2019-01-26T15:43:26.538Z,6.10
2019-01-26T15:46:07.200Z,6.10
2019-01-26T15:48:47.735Z,6.10
2019-01-26T15:51:28.329Z,6.10
2019-01-26T15:54:09.165Z,6.10
2019-01-26T15:56:49.633Z,6.10
2019-01-26T15:59:30.409Z,6.10
2019-01-26T16:02:10.996Z,6.00
2019-01-26T16:04:51.806Z,6.10
2019-01-26T16:07:32.565Z,6.10
2019-01-26T16:10:13.200Z,6.00
2019-01-26T16:12:53.888Z,6.00
2019-01-26T16:15:34.557Z,6.10
2019-01-26T16:18:15.549Z,6.10
2019-01-26T16:20:56.172Z,6.10
2019-01-26T16:23:37.257Z,6.00
2019-01-26T16:26:18.017Z,6.00
2019-01-26T16:28:58.680Z,6.10
2019-01-26T16:31:39.313Z,6.10
2019-01-26T16:34:19.969Z,6.10
2019-01-26T16:37:01.102Z,6.20
2019-01-26T16:39:41.818Z,6.10
2019-01-26T16:42:22.445Z,6.10
2019-01-26T16:45:03.444Z,6.10
2019-01-26T16:47:44.168Z,6.10
2019-01-26T16:50:27.690Z,6.00
2019-01-26T16:53:07.900Z,6.10
2019-01-26T16:55:50.282Z,6.10
2019-01-26T16:58:31.626Z,6.10
2019-01-26T17:01:12.369Z,6.20
2019-01-26T17:03:52.816Z,6.20
2019-01-26T17:06:33.689Z,6.20
2019-01-26T17:09:14.810Z,6.20
2019-01-26T17:11:55.392Z,6.20
2019-01-26T17:14:36.062Z,6.20
2019-01-26T17:17:16.582Z,6.20
2019-01-26T17:19:57.300Z,6.30
2019-01-26T17:22:38.121Z,6.40
2019-01-26T17:25:07.130Z,6.40
2019-01-26T17:27:55.114Z,6.40
2019-01-26T17:30:43.205Z,6.40
2019-01-26T17:33:31.139Z,6.40
2019-01-26T17:36:19.003Z,6.50
2019-01-26T17:39:27.626Z,6.50
2019-01-26T17:42:15.507Z,6.50
2019-01-26T17:45:24.080Z,6.50
2019-01-26T17:48:11.936Z,6.60
2019-01-26T17:50:59.818Z,6.60
2019-01-26T17:53:47.570Z,6.50
2019-01-26T17:56:54.890Z,6.60
2019-01-26T17:59:42.646Z,6.60
2019-01-26T18:02:30.463Z,6.70
2019-01-26T18:04:59.060Z,6.60
2019-01-26T18:08:06.269Z,6.60
2019-01-26T18:10:54.272Z,6.60
2019-01-26T18:13:42.133Z,6.70
2019-01-26T18:16:30.047Z,6.70
2019-01-26T18:19:17.948Z,6.70
2019-01-26T18:21:58.922Z,6.80
2019-01-26T18:24:39.583Z,6.70
2019-01-26T18:27:19.972Z,6.80
2019-01-26T18:30:00.843Z,6.80
2019-01-26T18:32:45.334Z,6.80
2019-01-26T18:35:25.016Z,6.80
2019-01-26T18:38:05.837Z,6.70
2019-01-26T18:40:46.920Z,6.70
2019-01-26T18:43:27.772Z,6.70
2019-01-26T18:46:08.750Z,6.70
2019-01-26T18:48:49.492Z,6.80
2019-01-26T18:51:30.170Z,6.80
2019-01-26T18:54:11.289Z,6.80
2019-01-26T18:56:51.983Z,6.80
2019-01-26T18:59:32.645Z,6.80
2019-01-26T19:02:13.396Z,6.80
2019-01-26T19:04:54.664Z,6.70
2019-01-26T19:07:35.697Z,6.80
2019-01-26T19:10:16.792Z,6.70
2019-01-26T19:12:57.264Z,6.70
2019-01-26T19:15:39.507Z,6.80
2019-01-26T19:18:19.905Z,6.80
2019-01-26T19:21:03.325Z,6.70
2019-01-26T19:23:43.619Z,6.80
2019-01-26T19:26:24.691Z,6.80
2019-01-26T19:29:05.454Z,6.80
2019-01-26T19:31:46.715Z,6.80
2019-01-26T19:34:27.664Z,6.70
2019-01-26T19:37:09.358Z,6.70
2019-01-26T19:39:50.286Z,6.80
2019-01-26T19:42:31.500Z,6.80
2019-01-26T19:45:12.160Z,6.70
2019-01-26T19:47:52.683Z,6.70
2019-01-26T19:50:33.651Z,6.90
2019-01-26T19:53:14.869Z,6.80
2019-01-26T19:55:55.899Z,6.70
2019-01-26T19:58:36.697Z,6.70
2019-01-26T20:01:17.389Z,6.70
2019-01-26T20:03:58.222Z,6.60
2019-01-26T20:06:38.834Z,6.70
2019-01-26T20:09:19.477Z,6.70
2019-01-26T20:12:00.012Z,6.70
2019-01-26T20:14:40.776Z,6.70
2019-01-26T20:17:21.242Z,6.70
2019-01-26T20:19:49.719Z,6.70
2019-01-26T20:22:37.497Z,6.60
2019-01-26T20:25:25.713Z,6.70
2019-01-26T20:28:13.567Z,6.80
2019-01-26T20:31:01.353Z,6.70
2019-01-26T20:33:49.412Z,6.80
2019-01-26T20:36:37.191Z,6.80
2019-01-26T20:39:25.010Z,6.70
2019-01-26T20:42:05.907Z,6.80
2019-01-26T20:44:46.619Z,6.70
2019-01-26T20:47:27.285Z,6.70
2019-01-26T20:50:07.777Z,6.80
2019-01-26T20:52:48.940Z,6.70
2019-01-26T20:55:29.607Z,6.70
2019-01-26T20:58:10.257Z,6.80
2019-01-26T21:00:51.356Z,6.90
2019-01-26T21:03:31.996Z,6.80
2019-01-26T21:06:12.521Z,6.80
2019-01-26T21:08:53.413Z,6.80
2019-01-26T21:11:34.258Z,6.90
2019-01-26T21:14:14.705Z,6.70
2019-01-26T21:16:55.689Z,6.80
2019-01-26T21:19:36.547Z,6.80
2019-01-26T21:22:17.409Z,6.80
2019-01-26T21:24:58.167Z,6.80
2019-01-26T21:27:39.152Z,6.80
2019-01-26T21:30:20.018Z,6.80
2019-01-26T21:33:00.634Z,6.80
2019-01-26T21:35:41.468Z,6.80
2019-01-26T21:38:22.411Z,6.80
2019-01-26T21:41:02.962Z,6.90
2019-01-26T21:43:43.681Z,6.80
2019-01-26T21:46:12.120Z,6.80
2019-01-26T21:48:59.956Z,6.80
2019-01-26T21:51:47.714Z,6.80
2019-01-26T21:54:35.490Z,6.70
2019-01-26T21:57:23.562Z,6.70
2019-01-26T22:00:32.151Z,6.60
2019-01-26T22:03:20.035Z,6.60
2019-01-26T22:06:07.773Z,6.60
2019-01-26T22:08:56.420Z,6.60
2019-01-26T22:14:51.125Z,6.60
2019-01-26T22:17:39.131Z,6.50
2019-01-26T22:20:27.761Z,6.70
2019-01-26T22:23:08.889Z,6.70
2019-01-26T22:25:49.750Z,6.70
2019-01-26T22:28:29.958Z,6.70
2019-01-26T22:31:10.917Z,6.80
2019-01-26T22:33:51.363Z,6.60
2019-01-26T22:36:32.780Z,6.60
2019-01-26T22:39:13.648Z,6.60
2019-01-26T22:41:54.329Z,6.60
2019-01-26T22:44:35.169Z,6.60
2019-01-26T22:47:16.062Z,6.60
2019-01-26T22:49:57.021Z,6.60
2019-01-26T22:52:37.886Z,6.60
2019-01-26T22:55:18.472Z,6.70
2019-01-26T22:57:59.377Z,6.60
2019-01-26T23:03:47.362Z,6.60
2019-01-26T23:06:28.098Z,6.60
2019-01-26T23:09:09.074Z,6.70
2019-01-26T23:11:49.376Z,6.60
2019-01-26T23:14:30.950Z,6.70
2019-01-26T23:17:12.199Z,6.70
2019-01-26T23:19:52.888Z,6.80
2019-01-26T23:22:33.614Z,6.80
2019-01-26T23:25:14.757Z,6.70
2019-01-26T23:27:55.757Z,6.60
2019-01-26T23:33:18.691Z,6.70
2019-01-26T23:35:59.483Z,6.60
2019-01-26T23:38:40.612Z,6.60
2019-01-26T23:41:21.268Z,6.60
2019-01-26T23:44:02.237Z,6.60
2019-01-26T23:46:43.140Z,6.60
2019-01-26T23:49:23.895Z,6.60
2019-01-26T23:52:04.442Z,6.60
2019-01-26T23:54:45.216Z,6.60
2019-01-26T23:57:26.064Z,6.50
